Time;durP1;ratioP1;P1;durP2;ratioP2;P2;SDS_P1;SDS_P2;PMS_P1;PMS_P2;Temp;Humidity;BMP_temperature;BMP_pressure;BME280_temperature;BME280_humidity;BME280_pressure;Samples;Min_cycle;Max_cycle;Signal;HPM_P1;HPM_P2
2023/01/18 00:01:06;;;;;;;0.00;0.00;;;;;;;;;;6214097;23;20067;-85
2023/01/18 00:03:32;;;;;;;0.00;0.00;;;;;;;;;;6214194;23;20059;-85
2023/01/18 00:06:00;;;;;;;0.00;0.00;;;;;;;;;;6213958;23;20066;-84
2023/01/18 00:08:27;;;;;;;0.00;0.00;;;;;;;;;;6189127;23;20023;-84
2023/01/18 00:10:53;;;;;;;0.00;0.00;;;;;;;;;;6213876;23;20012;-85
2023/01/18 00:13:19;;;;;;;0.63;0.63;;;;;;;;;;6216214;23;20017;-85
2023/01/18 00:15:45;;;;;;;0.00;0.00;;;;;;;;;;6213884;23;20180;-85
2023/01/18 00:18:11;;;;;;;0.00;0.00;;;;;;;;;;6214164;23;20048;-84
2023/01/18 00:20:37;;;;;;;0.00;0.00;;;;;;;;;;6213954;23;20039;-84
2023/01/18 00:23:04;;;;;;;0.00;0.00;;;;;;;;;;6214065;23;20376;-85
2023/01/18 00:25:30;;;;;;;0.00;0.00;;;;;;;;;;6213785;23;20096;-85
2023/01/18 00:27:56;;;;;;;0.00;0.00;;;;;;;;;;6214130;23;20056;-85
2023/01/18 00:30:23;;;;;;;0.00;0.00;;;;;;;;;;6215135;23;20051;-85
2023/01/18 00:32:52;;;;;;;0.22;0.20;;;;;;;;;;6218791;23;20035;-85
2023/01/18 00:35:20;;;;;;;0.00;0.00;;;;;;;;;;6218581;23;20016;-85
2023/01/18 00:37:47;;;;;;;0.00;0.00;;;;;;;;;;6246437;23;20015;-85
2023/01/18 00:40:13;;;;;;;0.00;0.00;;;;;;;;;;6218688;23;20030;-85
2023/01/18 00:45:25;;;;;;;0.00;0.00;;;;;;;;;;6245467;23;20454;-85
2023/01/18 00:47:51;;;;;;;0.00;0.00;;;;;;;;;;6193957;23;20018;-85
2023/01/18 00:50:19;;;;;;;0.00;0.00;;;;;;;;;;6218848;23;20407;-85
2023/01/18 00:52:45;;;;;;;0.00;0.00;;;;;;;;;;6193994;23;20043;-84
2023/01/18 00:55:12;;;;;;;0.00;0.00;;;;;;;;;;6218827;23;20046;-85
2023/01/18 00:57:38;;;;;;;0.00;0.00;;;;;;;;;;6218889;23;20469;-85
2023/01/18 01:00:04;;;;;;;0.00;0.00;;;;;;;;;;6218603;23;20023;-85
2023/01/18 01:02:30;;;;;;;0.00;0.00;;;;;;;;;;6218929;23;20008;-85
2023/01/18 01:07:41;;;;;;;0.00;0.00;;;;;;;;;;6218839;23;20016;-85
2023/01/18 01:10:07;;;;;;;0.00;0.00;;;;;;;;;;6218707;23;20018;-84
2023/01/18 01:26:17;;;;;;;0.00;0.00;;;;;;;;;;6245195;23;20367;-85
2023/01/18 01:28:44;;;;;;;0.00;0.00;;;;;;;;;;6193056;23;20386;-85
2023/01/18 01:31:14;;;;;;;0.00;0.00;;;;;;;;;;6212794;23;20095;-85
2023/01/18 01:33:40;;;;;;;0.00;0.00;;;;;;;;;;6188016;23;20023;-85
2023/01/18 01:36:11;;;;;;;0.00;0.00;;;;;;;;;;6212923;23;20043;-85
2023/01/18 01:38:38;;;;;;;0.00;0.00;;;;;;;;;;6213229;23;20042;-85
2023/01/18 01:41:04;;;;;;;0.00;0.00;;;;;;;;;;6212857;23;20347;-85
2023/01/18 01:43:56;;;;;;;0.00;0.00;;;;;;;;;;6213153;23;20020;-84
2023/01/18 01:46:44;;;;;;;0.00;0.00;;;;;;;;;;6157501;23;20024;-85
2023/01/18 01:49:10;;;;;;;0.00;0.00;;;;;;;;;;6213161;23;20013;-85
2023/01/18 01:51:39;;;;;;;0.00;0.00;;;;;;;;;;6212706;23;20020;-85
2023/01/18 01:54:07;;;;;;;0.00;0.00;;;;;;;;;;6214649;23;20074;-85
2023/01/18 01:56:33;;;;;;;0.00;0.00;;;;;;;;;;6212828;23;20350;-85
2023/01/18 01:59:01;;;;;;;0.00;0.00;;;;;;;;;;6213372;23;20092;-85
2023/01/18 02:01:28;;;;;;;0.00;0.00;;;;;;;;;;6214578;23;20016;-85
2023/01/18 02:03:55;;;;;;;0.00;0.00;;;;;;;;;;6213122;23;20410;-85
2023/01/18 02:06:32;;;;;;;0.00;0.00;;;;;;;;;;6212717;23;20044;-85
2023/01/18 02:09:02;;;;;;;0.00;0.00;;;;;;;;;;6213096;23;20020;-85
2023/01/18 02:11:28;;;;;;;0.00;0.00;;;;;;;;;;6212787;23;20456;-84
2023/01/18 02:13:55;;;;;;;0.00;0.00;;;;;;;;;;6213339;23;20017;-85
2023/01/18 02:16:37;;;;;;;0.00;0.00;;;;;;;;;;6212847;23;20020;-85
2023/01/18 02:19:23;;;;;;;0.00;0.00;;;;;;;;;;6212956;23;20385;-84
2023/01/18 02:22:01;;;;;;;0.00;0.00;;;;;;;;;;6138494;23;20086;-85
2023/01/18 02:24:38;;;;;;;0.00;0.00;;;;;;;;;;6214913;23;20072;-85
2023/01/18 02:27:05;;;;;;;0.00;0.00;;;;;;;;;;6212675;23;20040;-84
2023/01/18 02:29:50;;;;;;;0.00;0.00;;;;;;;;;;6212984;23;20019;-85
2023/01/18 02:32:29;;;;;;;0.00;0.00;;;;;;;;;;6217511;23;20023;-85
2023/01/18 02:35:04;;;;;;;0.00;0.00;;;;;;;;;;6245167;23;20023;-86
2023/01/18 02:37:30;;;;;;;;;;;;;;;;;;6218141;23;20398;-85
2023/01/18 02:40:14;;;;;;;0.00;0.00;;;;;;;;;;6217871;23;19943;-85
2023/01/18 02:48:15;;;;;;;0.00;0.00;;;;;;;;;;6217624;23;20019;-85
2023/01/18 02:50:41;;;;;;;0.00;0.00;;;;;;;;;;6218758;23;20016;-85
2023/01/18 02:53:09;;;;;;;0.00;0.00;;;;;;;;;;6217830;23;20020;-85
2023/01/18 02:55:35;;;;;;;0.00;0.00;;;;;;;;;;6217989;23;20047;-84
2023/01/18 02:58:05;;;;;;;0.00;0.00;;;;;;;;;;6217754;23;20020;-85
2023/01/18 03:00:32;;;;;;;0.00;0.00;;;;;;;;;;6217901;23;20099;-85
2023/01/18 03:02:59;;;;;;;0.00;0.00;;;;;;;;;;6218336;23;20404;-85
2023/01/18 03:05:26;;;;;;;2.55;0.55;;;;;;;;;;6219844;23;20341;-85
2023/01/18 03:07:54;;;;;;;0.20;0.00;;;;;;;;;;6219692;23;20008;-85
2023/01/18 03:10:22;;;;;;;0.00;0.00;;;;;;;;;;6219916;23;20434;-85
2023/01/18 03:12:48;;;;;;;0.00;0.00;;;;;;;;;;6219758;23;20090;-85
2023/01/18 03:15:24;;;;;;;0.00;0.00;;;;;;;;;;6219911;23;20020;-85
2023/01/18 03:17:56;;;;;;;0.00;0.00;;;;;;;;;;6220061;23;20020;-85
2023/01/18 03:20:24;;;;;;;0.00;0.00;;;;;;;;;;6220372;23;20058;-84
2023/01/18 03:25:49;;;;;;;0.00;0.00;;;;;;;;;;6247047;23;20016;-84
2023/01/18 03:34:39;;;;;;;0.00;0.00;;;;;;;;;;6246892;23;20019;-85
2023/01/18 03:37:14;;;;;;;0.00;0.00;;;;;;;;;;6219434;23;20087;-85
2023/01/18 03:39:46;;;;;;;0.00;0.00;;;;;;;;;;6246689;23;20012;-85
2023/01/18 03:42:14;;;;;;;0.00;0.00;;;;;;;;;;6218981;23;20012;-85
2023/01/18 03:44:46;;;;;;;0.00;0.00;;;;;;;;;;6219391;23;20023;-85
2023/01/18 03:47:12;;;;;;;0.00;0.00;;;;;;;;;;6219356;23;20043;-85
2023/01/18 03:49:39;;;;;;;0.05;0.05;;;;;;;;;;6219457;23;20460;-85
2023/01/18 03:52:05;;;;;;;0.00;0.00;;;;;;;;;;6219183;23;20012;-86
2023/01/18 03:54:34;;;;;;;0.00;0.00;;;;;;;;;;6219403;23;20016;-85
2023/01/18 03:57:02;;;;;;;0.00;0.00;;;;;;;;;;6219122;23;20061;-85
2023/01/18 03:59:32;;;;;;;0.00;0.00;;;;;;;;;;6219383;23;20020;-85
2023/01/18 04:01:58;;;;;;;0.00;0.00;;;;;;;;;;6246293;23;20012;-86
2023/01/18 04:04:24;;;;;;;0.00;0.00;;;;;;;;;;6219239;23;20009;-85
2023/01/18 04:06:50;;;;;;;0.00;0.00;;;;;;;;;;6219056;23;20070;-85
2023/01/18 04:09:16;;;;;;;0.00;0.00;;;;;;;;;;6246424;23;20008;-84
2023/01/18 04:11:42;;;;;;;0.00;0.00;;;;;;;;;;6219304;23;20095;-85
2023/01/18 04:14:08;;;;;;;0.00;0.00;;;;;;;;;;6245782;23;20016;-85
2023/01/18 04:16:34;;;;;;;0.00;0.00;;;;;;;;;;6219226;23;20023;-85
2023/01/18 04:19:00;;;;;;;0.05;0.03;;;;;;;;;;6218861;23;20016;-85
2023/01/18 04:21:26;;;;;;;0.00;0.00;;;;;;;;;;6219112;23;20016;-85
2023/01/18 04:23:52;;;;;;;0.00;0.00;;;;;;;;;;6218941;23;20038;-84
2023/01/18 04:26:18;;;;;;;0.00;0.00;;;;;;;;;;6219024;23;20445;-85
2023/01/18 04:28:44;;;;;;;0.00;0.00;;;;;;;;;;6193772;23;20008;-85
2023/01/18 04:31:10;;;;;;;0.00;0.00;;;;;;;;;;6193818;23;20024;-85
2023/01/18 04:33:36;;;;;;;0.00;0.00;;;;;;;;;;6218702;23;20016;-85
2023/01/18 04:36:03;;;;;;;0.00;0.00;;;;;;;;;;6218836;23;20122;-85
2023/01/18 04:38:29;;;;;;;0.00;0.00;;;;;;;;;;6218474;23;20413;-84
2023/01/18 04:40:55;;;;;;;0.00;0.00;;;;;;;;;;6218835;23;20020;-85
2023/01/18 04:43:21;;;;;;;0.00;0.00;;;;;;;;;;6218636;23;20008;-85
2023/01/18 04:45:54;;;;;;;0.00;0.00;;;;;;;;;;6193822;23;20074;-85
2023/01/18 04:48:20;;;;;;;0.05;0.03;;;;;;;;;;6218646;23;20412;-85
2023/01/18 04:50:47;;;;;;;0.00;0.00;;;;;;;;;;6218913;23;20008;-85
2023/01/18 04:53:13;;;;;;;0.00;0.00;;;;;;;;;;6218581;23;20031;-85
2023/01/18 04:55:39;;;;;;;0.00;0.00;;;;;;;;;;6218807;23;20091;-85
2023/01/18 04:58:05;;;;;;;0.00;0.00;;;;;;;;;;6218616;23;20154;-86
2023/01/18 05:00:31;;;;;;;0.00;0.00;;;;;;;;;;6218691;23;20087;-85
2023/01/18 05:02:57;;;;;;;0.00;0.00;;;;;;;;;;6218558;23;20016;-85
2023/01/18 05:05:23;;;;;;;0.00;0.00;;;;;;;;;;6218571;23;20441;-85
2023/01/18 05:07:49;;;;;;;0.00;0.00;;;;;;;;;;6218419;23;20020;-86
2023/01/18 05:10:15;;;;;;;0.00;0.00;;;;;;;;;;6218759;23;20268;-85
2023/01/18 05:12:41;;;;;;;0.00;0.00;;;;;;;;;;6218325;23;20460;-85
2023/01/18 05:15:08;;;;;;;0.30;0.22;;;;;;;;;;6218479;23;20104;-84
2023/01/18 05:17:34;;;;;;;0.00;0.00;;;;;;;;;;6218265;23;20027;-85
2023/01/18 05:20:00;;;;;;;0.00;0.00;;;;;;;;;;6218494;23;20327;-85
2023/01/18 05:22:27;;;;;;;0.00;0.00;;;;;;;;;;6218574;23;20047;-85
2023/01/18 05:24:53;;;;;;;0.00;0.00;;;;;;;;;;6218144;23;20020;-85
2023/01/18 05:27:19;;;;;;;0.00;0.00;;;;;;;;;;6245598;23;20036;-85
2023/01/18 05:29:47;;;;;;;0.00;0.00;;;;;;;;;;6218468;23;20019;-85
2023/01/18 05:32:13;;;;;;;0.00;0.00;;;;;;;;;;6218363;23;20031;-85
2023/01/18 05:34:39;;;;;;;0.00;0.00;;;;;;;;;;6218213;23;20016;-85
2023/01/18 05:37:05;;;;;;;0.00;0.00;;;;;;;;;;6218653;23;20106;-85
2023/01/18 05:39:31;;;;;;;0.00;0.00;;;;;;;;;;6218252;23;20064;-84
2023/01/18 05:41:57;;;;;;;0.00;0.00;;;;;;;;;;6218677;23;20024;-85
2023/01/18 05:44:23;;;;;;;0.00;0.00;;;;;;;;;;6218099;23;20081;-85
2023/01/18 05:46:49;;;;;;;0.00;0.00;;;;;;;;;;6218445;23;20012;-85
2023/01/18 05:49:15;;;;;;;0.00;0.00;;;;;;;;;;6193146;23;20091;-85
2023/01/18 05:51:41;;;;;;;0.08;0.08;;;;;;;;;;6218315;23;20020;-85
2023/01/18 05:54:07;;;;;;;0.00;0.00;;;;;;;;;;6245265;23;20012;-86
2023/01/18 05:56:33;;;;;;;0.00;0.00;;;;;;;;;;6218222;23;20020;-84
2023/01/18 05:58:59;;;;;;;0.00;0.00;;;;;;;;;;6218141;23;20070;-85
2023/01/18 06:01:25;;;;;;;0.00;0.00;;;;;;;;;;6193232;23;20083;-85
2023/01/18 06:03:51;;;;;;;0.00;0.00;;;;;;;;;;6218073;23;20016;-85
2023/01/18 06:06:17;;;;;;;0.00;0.00;;;;;;;;;;6193534;23;20012;-85
2023/01/18 06:08:43;;;;;;;0.00;0.00;;;;;;;;;;6218208;23;20019;-84
2023/01/18 06:11:09;;;;;;;0.00;0.00;;;;;;;;;;6218231;23;20012;-85
2023/01/18 06:13:35;;;;;;;0.00;0.00;;;;;;;;;;6218095;23;20097;-85
2023/01/18 06:16:01;;;;;;;0.00;0.00;;;;;;;;;;6218160;23;20052;-85
2023/01/18 06:18:29;;;;;;;0.00;0.00;;;;;;;;;;6217846;23;20016;-85
2023/01/18 06:20:56;;;;;;;0.00;0.00;;;;;;;;;;6218165;23;20016;-85
2023/01/18 06:23:22;;;;;;;0.00;0.00;;;;;;;;;;6192684;23;20019;-85
2023/01/18 06:25:48;;;;;;;0.00;0.00;;;;;;;;;;6217942;23;20012;-86
2023/01/18 06:28:14;;;;;;;0.00;0.00;;;;;;;;;;6192769;23;20015;-85
2023/01/18 06:30:41;;;;;;;1.17;0.52;;;;;;;;;;6217737;23;20024;-85
2023/01/18 06:33:08;;;;;;;0.00;0.00;;;;;;;;;;6193028;23;20023;-85
2023/01/18 06:35:34;;;;;;;0.00;0.00;;;;;;;;;;6217667;23;20066;-86
2023/01/18 06:38:00;;;;;;;0.00;0.00;;;;;;;;;;6219547;23;20020;-85
2023/01/18 06:40:26;;;;;;;0.00;0.00;;;;;;;;;;6219900;23;20100;-85
2023/01/18 06:42:52;;;;;;;0.00;0.00;;;;;;;;;;6220067;23;20052;-85
2023/01/18 06:45:20;;;;;;;0.00;0.00;;;;;;;;;;6219666;23;20468;-85
2023/01/18 06:47:46;;;;;;;0.00;0.00;;;;;;;;;;6194874;23;20035;-84
2023/01/18 06:50:14;;;;;;;0.00;0.00;;;;;;;;;;6219678;23;20310;-85
2023/01/18 06:52:41;;;;;;;0.00;0.00;;;;;;;;;;6219993;23;20078;-85
2023/01/18 06:55:07;;;;;;;0.00;0.00;;;;;;;;;;6220099;23;20027;-85
2023/01/18 06:57:33;;;;;;;0.00;0.00;;;;;;;;;;6194854;23;20016;-85
2023/01/18 07:00:04;;;;;;;0.00;0.00;;;;;;;;;;6219581;23;20154;-85
2023/01/18 07:02:30;;;;;;;0.00;0.00;;;;;;;;;;6219717;23;20016;-85
2023/01/18 07:04:56;;;;;;;0.00;0.00;;;;;;;;;;6219213;23;20357;-84
2023/01/18 07:07:22;;;;;;;0.00;0.00;;;;;;;;;;6219594;23;20064;-85
2023/01/18 07:09:48;;;;;;;0.00;0.00;;;;;;;;;;6219386;23;20334;-85
2023/01/18 07:12:14;;;;;;;0.00;0.00;;;;;;;;;;6219630;23;20024;-85
2023/01/18 07:14:40;;;;;;;0.00;0.00;;;;;;;;;;6219182;23;20342;-84
2023/01/18 07:17:07;;;;;;;0.00;0.00;;;;;;;;;;6219473;23;20391;-85
2023/01/18 07:19:33;;;;;;;0.00;0.00;;;;;;;;;;6219178;23;20469;-84
2023/01/18 07:22:00;;;;;;;0.00;0.00;;;;;;;;;;6246597;23;20075;-85
2023/01/18 07:24:26;;;;;;;0.00;0.00;;;;;;;;;;6219090;23;20087;-86
2023/01/18 07:26:52;;;;;;;0.25;0.20;;;;;;;;;;6219550;23;20323;-86
2023/01/18 07:29:18;;;;;;;0.00;0.00;;;;;;;;;;6219234;23;20103;-86
2023/01/18 07:31:44;;;;;;;0.00;0.00;;;;;;;;;;6219229;23;20146;-85
2023/01/18 07:34:10;;;;;;;0.00;0.00;;;;;;;;;;6245827;23;20115;-85
2023/01/18 07:36:40;;;;;;;0.00;0.00;;;;;;;;;;6219236;23;20339;-85
2023/01/18 07:39:07;;;;;;;0.00;0.00;;;;;;;;;;6193918;23;20048;-85
2023/01/18 07:41:33;;;;;;;0.00;0.00;;;;;;;;;;6219150;23;20517;-84
2023/01/18 07:44:00;;;;;;;0.00;0.00;;;;;;;;;;6218948;23;20319;-85
2023/01/18 07:46:26;;;;;;;0.00;0.00;;;;;;;;;;6219409;23;20012;-83
2023/01/18 07:48:52;;;;;;;0.00;0.00;;;;;;;;;;6193750;23;20476;-83
2023/01/18 07:51:18;;;;;;;0.00;0.00;;;;;;;;;;6246184;23;20019;-84
2023/01/18 07:53:45;;;;;;;0.20;0.10;;;;;;;;;;6219048;23;20019;-84
2023/01/18 07:56:12;;;;;;;0.00;0.00;;;;;;;;;;6218725;23;20023;-88
2023/01/18 07:58:38;;;;;;;0.00;0.00;;;;;;;;;;6219032;23;20007;-83
2023/01/18 08:01:06;;;;;;;0.00;0.00;;;;;;;;;;6219020;23;20454;-85
2023/01/18 08:16:58;;;;;;;0.00;0.00;;;;;;;;;;6117252;22;1281360;-91
2023/01/18 08:19:24;;;;;;;0.00;0.00;;;;;;;;;;6085519;23;20045;-91
2023/01/18 08:22:00;;;;;;;0.00;0.00;;;;;;;;;;6084823;23;20379;-92
2023/01/18 08:24:26;;;;;;;0.00;0.00;;;;;;;;;;6085375;23;20029;-93
2023/01/18 08:26:52;;;;;;;0.00;0.00;;;;;;;;;;6084436;23;20342;-86
2023/01/18 08:29:18;;;;;;;0.00;0.00;;;;;;;;;;6109273;23;20013;-85
2023/01/18 08:31:46;;;;;;;0.00;0.00;;;;;;;;;;6108840;23;20338;-93
2023/01/18 08:34:15;;;;;;;0.00;0.00;;;;;;;;;;6062170;23;20093;-93
2023/01/18 08:36:41;;;;;;;0.00;0.00;;;;;;;;;;6060622;23;20016;-92
2023/01/18 08:39:07;;;;;;;1.27;0.10;;;;;;;;;;6109344;23;20060;-92
2023/01/18 08:41:35;;;;;;;0.00;0.00;;;;;;;;;;6109316;23;20049;-93
2023/01/18 08:44:07;;;;;;;0.00;0.00;;;;;;;;;;6085280;23;20010;-93
2023/01/18 08:46:34;;;;;;;0.00;0.00;;;;;;;;;;6084901;23;20102;-94
2023/01/18 08:49:08;;;;;;;0.00;0.00;;;;;;;;;;6087044;23;20075;-93
2023/01/18 08:51:34;;;;;;;0.00;0.00;;;;;;;;;;6085411;23;20016;-93
2023/01/18 08:54:00;;;;;;;0.00;0.00;;;;;;;;;;6085236;23;20501;-94
2023/01/18 08:56:27;;;;;;;0.00;0.00;;;;;;;;;;6084408;23;20335;-93
2023/01/18 08:58:53;;;;;;;0.00;0.00;;;;;;;;;;6085254;23;20087;-94
2023/01/18 09:01:21;;;;;;;0.00;0.00;;;;;;;;;;6084515;23;20020;-92
2023/01/18 09:03:49;;;;;;;0.00;0.00;;;;;;;;;;6084734;23;20021;-92
2023/01/18 09:06:15;;;;;;;0.00;0.00;;;;;;;;;;6109323;23;20025;-93
2023/01/18 09:08:42;;;;;;;0.00;0.00;;;;;;;;;;6084959;23;20023;-91
2023/01/18 09:11:09;;;;;;;0.00;0.00;;;;;;;;;;6112955;23;20336;-92
2023/01/18 09:13:40;;;;;;;0.00;0.00;;;;;;;;;;6118823;23;20020;-93
2023/01/18 09:16:11;;;;;;;0.00;0.00;;;;;;;;;;6115617;23;20395;-93
2023/01/18 09:18:37;;;;;;;0.00;0.00;;;;;;;;;;6087141;23;20058;-94
2023/01/18 09:21:16;;;;;;;0.00;0.00;;;;;;;;;;6086983;23;20021;-95
2023/01/18 09:23:44;;;;;;;0.00;0.00;;;;;;;;;;6081166;23;20014;-93
2023/01/18 09:26:15;;;;;;;0.00;0.00;;;;;;;;;;6101925;23;20380;-92
2023/01/18 09:28:43;;;;;;;0.00;0.00;;;;;;;;;;6078463;23;20010;-93
2023/01/18 09:31:11;;;;;;;0.00;0.00;;;;;;;;;;6078070;23;20010;-94
2023/01/18 09:33:38;;;;;;;0.00;0.00;;;;;;;;;;6102238;23;20014;-94
2023/01/18 09:36:09;;;;;;;0.00;0.00;;;;;;;;;;6078363;23;20431;-94
2023/01/18 09:38:54;;;;;;;0.00;0.00;;;;;;;;;;6106042;23;20477;-93
2023/01/18 09:41:29;;;;;;;0.00;0.00;;;;;;;;;;6055232;23;20029;-93
2023/01/18 09:44:16;;;;;;;0.00;0.00;;;;;;;;;;6104708;23;20105;-94
2023/01/18 09:46:43;;;;;;;0.00;0.00;;;;;;;;;;6075696;23;20018;-94
2023/01/18 09:49:52;;;;;;;0.00;0.00;;;;;;;;;;6104642;23;20100;-93
2023/01/18 09:52:50;;;;;;;0.00;0.00;;;;;;;;;;5962249;23;20027;-93
2023/01/18 09:55:39;;;;;;;0.00;0.00;;;;;;;;;;6116565;23;20018;-93
2023/01/18 09:58:25;;;;;;;0.00;0.00;;;;;;;;;;6105050;23;20276;-93
2023/01/18 10:00:54;;;;;;;0.00;0.00;;;;;;;;;;6081269;23;20025;-92
2023/01/18 10:07:31;;;;;;;0.00;0.00;;;;;;;;;;5987123;24;20492;-93
2023/01/18 10:10:00;;;;;;;0.00;0.00;;;;;;;;;;5982316;23;20031;-93
2023/01/18 10:12:40;;;;;;;0.20;0.10;;;;;;;;;;5945476;24;20020;-94
2023/01/18 10:21:40;;;;;;;2.05;0.38;;;;;;;;;;6070221;23;20050;-92
2023/01/18 10:24:16;;;;;;;0.00;0.00;;;;;;;;;;6044916;23;20069;-93
2023/01/18 10:26:43;;;;;;;0.00;0.00;;;;;;;;;;6022354;23;20033;-93
2023/01/18 10:29:49;;;;;;;0.20;0.20;;;;;;;;;;6021063;23;20337;-93
2023/01/18 10:32:19;;;;;;;0.00;0.00;;;;;;;;;;6064289;23;20026;-93
2023/01/18 10:35:08;;;;;;;0.03;0.00;;;;;;;;;;6020713;23;20054;-93
2023/01/18 10:37:41;;;;;;;0.00;0.00;;;;;;;;;;6042534;23;20070;-89
2023/01/18 10:40:11;;;;;;;0.00;0.00;;;;;;;;;;6044495;23;20432;-92
2023/01/18 10:42:47;;;;;;;0.00;0.00;;;;;;;;;;5997256;23;20010;-92
2023/01/18 10:45:18;;;;;;;0.10;0.10;;;;;;;;;;6019134;23;20098;-91
2023/01/18 10:47:44;;;;;;;0.00;0.00;;;;;;;;;;6020578;23;20017;-90
2023/01/18 10:50:16;;;;;;;0.00;0.00;;;;;;;;;;6044494;23;20098;-89
2023/01/18 10:52:42;;;;;;;0.00;0.00;;;;;;;;;;6043521;23;20015;-92
2023/01/18 10:55:16;;;;;;;0.00;0.00;;;;;;;;;;6019663;23;20026;-92
2023/01/18 10:57:50;;;;;;;0.00;0.00;;;;;;;;;;6019664;23;20019;-91
2023/01/18 11:00:32;;;;;;;0.00;0.00;;;;;;;;;;6019600;23;20021;-91
2023/01/18 11:02:59;;;;;;;0.00;0.00;;;;;;;;;;6020451;23;20018;-90
2023/01/18 11:05:29;;;;;;;0.57;0.57;;;;;;;;;;6043208;23;20015;-92
2023/01/18 11:08:13;;;;;;;0.00;0.00;;;;;;;;;;6019630;23;20066;-92
2023/01/18 11:10:40;;;;;;;0.32;0.32;;;;;;;;;;6019710;23;20042;-93
2023/01/18 11:13:26;;;;;;;0.00;0.00;;;;;;;;;;5996240;23;20017;-92
2023/01/18 11:16:14;;;;;;;0.00;0.00;;;;;;;;;;6019539;23;20309;-90
2023/01/18 11:18:59;;;;;;;0.00;0.00;;;;;;;;;;6019239;23;20018;-89
2023/01/18 11:21:30;;;;;;;0.00;0.00;;;;;;;;;;6042554;23;20015;-89
2023/01/18 11:23:56;;;;;;;0.15;0.10;;;;;;;;;;6018792;23;20030;-90
2023/01/18 11:26:23;;;;;;;0.00;0.00;;;;;;;;;;6018982;23;20063;-89
2023/01/18 11:28:55;;;;;;;0.00;0.00;;;;;;;;;;6018828;23;20030;-90
2023/01/18 11:31:22;;;;;;;0.00;0.00;;;;;;;;;;6043075;23;20011;-93
2023/01/18 11:33:50;;;;;;;0.00;0.00;;;;;;;;;;6018569;23;20021;-88
2023/01/18 11:36:18;;;;;;;0.00;0.00;;;;;;;;;;6018579;23;20460;-89
2023/01/18 11:38:45;;;;;;;0.00;0.00;;;;;;;;;;6020126;23;20025;-89
2023/01/18 11:41:16;;;;;;;0.00;0.00;;;;;;;;;;6042425;23;20341;-89
2023/01/18 11:43:47;;;;;;;0.00;0.00;;;;;;;;;;6018582;23;20025;-89
2023/01/18 11:46:33;;;;;;;0.00;0.00;;;;;;;;;;6018899;23;20098;-89
2023/01/18 11:49:06;;;;;;;0.00;0.00;;;;;;;;;;6018705;23;20022;-89
2023/01/18 11:51:40;;;;;;;0.00;0.00;;;;;;;;;;6041030;23;20336;-91
2023/01/18 11:54:09;;;;;;;0.22;0.13;;;;;;;;;;6042399;23;20085;-89
2023/01/18 11:56:44;;;;;;;0.00;0.00;;;;;;;;;;6042408;23;20039;-89
2023/01/18 11:59:25;;;;;;;0.15;0.10;;;;;;;;;;6018913;23;20098;-90
2023/01/18 12:02:10;;;;;;;0.00;0.00;;;;;;;;;;6018900;23;20046;-90
2023/01/18 12:04:54;;;;;;;0.00;0.00;;;;;;;;;;6018813;23;20018;-91
2023/01/18 12:07:32;;;;;;;0.00;0.00;;;;;;;;;;6018728;23;20026;-89
2023/01/18 12:10:00;;;;;;;0.00;0.00;;;;;;;;;;6018643;23;20015;-90
2023/01/18 12:12:44;;;;;;;0.00;0.00;;;;;;;;;;6018746;23;20014;-89
2023/01/18 12:15:40;;;;;;;0.00;0.00;;;;;;;;;;6042297;23;20082;-89
2023/01/18 12:18:26;;;;;;;0.00;0.00;;;;;;;;;;6006578;23;20094;-90
2023/01/18 12:20:59;;;;;;;0.00;0.00;;;;;;;;;;6018703;23;20018;-89
2023/01/18 12:23:42;;;;;;;0.00;0.00;;;;;;;;;;6042232;23;20054;-90
2023/01/18 12:26:12;;;;;;;0.00;0.00;;;;;;;;;;6042332;23;20099;-90
2023/01/18 12:28:46;;;;;;;0.00;0.00;;;;;;;;;;6018203;23;20022;-89
2023/01/18 12:31:16;;;;;;;0.00;0.00;;;;;;;;;;6018794;23;20388;-90
2023/01/18 12:33:41;;;;;;;0.10;0.00;;;;;;;;;;6042564;23;20022;-90
2023/01/18 12:36:13;;;;;;;0.00;0.00;;;;;;;;;;6042207;23;20015;-91
2023/01/18 12:38:41;;;;;;;0.00;0.00;;;;;;;;;;6042191;23;20102;-89
2023/01/18 12:41:19;;;;;;;0.00;0.00;;;;;;;;;;6018905;23;20026;-91
2023/01/18 12:43:48;;;;;;;0.38;0.20;;;;;;;;;;6042197;23;20030;-91
2023/01/18 12:46:18;;;;;;;0.00;0.00;;;;;;;;;;6018553;23;20021;-89
2023/01/18 12:49:00;;;;;;;0.00;0.00;;;;;;;;;;6018754;23;20021;-91
2023/01/18 12:51:28;;;;;;;0.00;0.00;;;;;;;;;;6018755;23;20015;-90
2023/01/18 12:54:00;;;;;;;0.15;0.08;;;;;;;;;;6044420;23;20147;-89
2023/01/18 12:56:36;;;;;;;0.00;0.00;;;;;;;;;;6020461;23;20026;-91
2023/01/18 12:59:07;;;;;;;0.00;0.00;;;;;;;;;;6043782;23;20097;-89
2023/01/18 13:01:37;;;;;;;0.00;0.00;;;;;;;;;;6020536;23;20086;-89
2023/01/18 13:04:12;;;;;;;0.00;0.00;;;;;;;;;;6020443;23;20015;-90
2023/01/18 13:06:38;;;;;;;0.00;0.00;;;;;;;;;;6020740;23;20022;-89
2023/01/18 13:09:09;;;;;;;0.00;0.00;;;;;;;;;;6019819;23;20049;-89
2023/01/18 13:11:37;;;;;;;0.00;0.00;;;;;;;;;;6020325;23;20219;-89
2023/01/18 13:14:11;;;;;;;0.00;0.00;;;;;;;;;;6019843;23;20464;-90
2023/01/18 13:16:39;;;;;;;0.00;0.00;;;;;;;;;;6044095;23;20019;-89
2023/01/18 13:19:11;;;;;;;0.00;0.00;;;;;;;;;;6019700;23;20356;-90
2023/01/18 13:21:40;;;;;;;0.05;0.00;;;;;;;;;;6043844;23;20388;-91
2023/01/18 13:24:20;;;;;;;0.00;0.00;;;;;;;;;;6019830;23;20400;-89
2023/01/18 13:26:46;;;;;;;0.00;0.00;;;;;;;;;;6019864;23;20019;-90
2023/01/18 13:29:21;;;;;;;0.00;0.00;;;;;;;;;;6042799;23;20019;-90
2023/01/18 13:31:47;;;;;;;0.00;0.00;;;;;;;;;;6020450;23;20047;-88
2023/01/18 13:34:32;;;;;;;0.00;0.00;;;;;;;;;;6043266;23;20014;-88
2023/01/18 13:36:59;;;;;;;0.00;0.00;;;;;;;;;;6019841;23;20015;-89
2023/01/18 13:39:26;;;;;;;0.00;0.00;;;;;;;;;;6019799;23;20034;-91
2023/01/18 13:42:07;;;;;;;0.00;0.00;;;;;;;;;;6020229;23;20014;-88
2023/01/18 13:44:41;;;;;;;0.25;0.25;;;;;;;;;;6019414;23;20025;-87
2023/01/18 13:47:26;;;;;;;0.00;0.00;;;;;;;;;;6019790;23;20253;-89
2023/01/18 13:49:52;;;;;;;0.00;0.00;;;;;;;;;;6019584;23;20010;-88
2023/01/18 13:52:29;;;;;;;0.00;0.00;;;;;;;;;;6043425;23;20187;-87
2023/01/18 13:54:55;;;;;;;0.00;0.00;;;;;;;;;;6041607;23;20022;-87
2023/01/18 13:57:23;;;;;;;0.00;0.00;;;;;;;;;;6042645;23;20026;-88
2023/01/18 13:59:51;;;;;;;0.00;0.00;;;;;;;;;;6019388;23;20047;-89
2023/01/18 14:02:22;;;;;;;0.00;0.00;;;;;;;;;;6043355;23;20046;-88
2023/01/18 14:05:15;;;;;;;0.00;0.00;;;;;;;;;;6043005;23;20531;-87
2023/01/18 14:07:46;;;;;;;0.00;0.00;;;;;;;;;;6043247;23;20015;-87
2023/01/18 14:10:30;;;;;;;0.00;0.00;;;;;;;;;;6043181;23;20459;-88
2023/01/18 14:12:57;;;;;;;0.45;0.15;;;;;;;;;;6042929;23;20066;-87
2023/01/18 14:15:22;;;;;;;0.00;0.00;;;;;;;;;;6018284;23;20089;-89
2023/01/18 14:17:48;;;;;;;0.00;0.00;;;;;;;;;;6042446;23;20089;-88
2023/01/18 14:20:17;;;;;;;0.00;0.00;;;;;;;;;;6042898;23;20026;-90
2023/01/18 14:22:51;;;;;;;0.00;0.00;;;;;;;;;;6019270;23;20083;-89
2023/01/18 14:25:29;;;;;;;0.00;0.00;;;;;;;;;;6019186;23;20015;-89
2023/01/18 14:28:10;;;;;;;0.00;0.00;;;;;;;;;;6019408;23;20025;-92
2023/01/18 14:30:37;;;;;;;0.00;0.00;;;;;;;;;;6042871;23;20025;-89
2023/01/18 14:33:11;;;;;;;0.00;0.00;;;;;;;;;;6042811;23;20011;-87
2023/01/18 14:35:37;;;;;;;0.00;0.00;;;;;;;;;;6019122;23;20097;-89
2023/01/18 14:38:08;;;;;;;0.00;0.00;;;;;;;;;;6042927;23;20026;-90
2023/01/18 14:40:35;;;;;;;0.00;0.00;;;;;;;;;;6018677;23;20019;-89
2023/01/18 14:43:04;;;;;;;0.00;0.00;;;;;;;;;;6043125;23;20025;-89
2023/01/18 14:45:33;;;;;;;0.00;0.00;;;;;;;;;;6019158;23;20025;-88
2023/01/18 14:48:01;;;;;;;0.15;0.00;;;;;;;;;;6019343;23;20014;-92
2023/01/18 14:50:31;;;;;;;0.00;0.00;;;;;;;;;;6043381;23;20034;-90
2023/01/18 14:52:57;;;;;;;0.20;0.05;;;;;;;;;;6018678;23;20306;-90
2023/01/18 14:55:34;;;;;;;0.00;0.00;;;;;;;;;;6018571;23;20453;-90
2023/01/18 14:58:01;;;;;;;0.00;0.00;;;;;;;;;;6042120;23;20015;-91
2023/01/18 15:00:27;;;;;;;0.00;0.00;;;;;;;;;;6018793;23;20018;-90
2023/01/18 15:02:55;;;;;;;0.00;0.00;;;;;;;;;;6018831;23;20456;-89
2023/01/18 15:05:26;;;;;;;0.00;0.00;;;;;;;;;;6042672;23;20015;-90
2023/01/18 15:07:54;;;;;;;0.00;0.00;;;;;;;;;;6042839;23;20011;-90
2023/01/18 15:10:21;;;;;;;0.00;0.00;;;;;;;;;;6019298;23;20055;-91
2023/01/18 15:12:48;;;;;;;0.00;0.00;;;;;;;;;;6019423;23;20010;-90
2023/01/18 15:15:27;;;;;;;0.65;0.25;;;;;;;;;;6042464;23;20405;-90
2023/01/18 15:17:54;;;;;;;0.00;0.00;;;;;;;;;;6019194;23;20074;-89
2023/01/18 15:20:20;;;;;;;0.00;0.00;;;;;;;;;;6018676;23;20026;-90
2023/01/18 15:22:49;;;;;;;0.00;0.00;;;;;;;;;;6019060;23;20042;-89
2023/01/18 15:25:23;;;;;;;0.00;0.00;;;;;;;;;;6018750;23;20070;-90
2023/01/18 15:27:50;;;;;;;0.00;0.00;;;;;;;;;;6018885;23;20019;-90
2023/01/18 15:30:17;;;;;;;3.10;0.20;;;;;;;;;;6019218;23;20101;-89
2023/01/18 15:32:43;;;;;;;0.00;0.00;;;;;;;;;;6042729;23;20022;-90
2023/01/18 15:35:13;;;;;;;0.00;0.00;;;;;;;;;;6019025;23;20022;-90
2023/01/18 15:37:39;;;;;;;0.00;0.00;;;;;;;;;;6019380;23;20011;-90
2023/01/18 15:40:14;;;;;;;0.35;0.00;;;;;;;;;;6042502;23;20025;-89
2023/01/18 15:42:50;;;;;;;0.00;0.00;;;;;;;;;;6019492;23;20026;-89
2023/01/18 15:45:17;;;;;;;0.00;0.00;;;;;;;;;;6018525;23;20031;-90
2023/01/18 15:47:48;;;;;;;0.00;0.00;;;;;;;;;;6018739;23;20114;-89
2023/01/18 15:50:21;;;;;;;0.08;0.00;;;;;;;;;;6018851;23;20090;-90
2023/01/18 15:53:04;;;;;;;0.00;0.00;;;;;;;;;;6019256;23;20090;-89
2023/01/18 15:55:33;;;;;;;0.00;0.00;;;;;;;;;;6019896;23;20157;-91
2023/01/18 15:58:01;;;;;;;0.00;0.00;;;;;;;;;;6019256;23;20022;-92